sensor_id;sensor_type;location;lat;lon;timestamp;temperature;humidity
3566;DHT22;1797;51.844;7.684;2023-03-01T00:02:20;-2.20;1.00
3566;DHT22;1797;51.844;7.684;2023-03-01T00:04:46;-2.20;1.00
3566;DHT22;1797;51.844;7.684;2023-03-01T00:07:13;-2.10;1.00
3566;DHT22;1797;51.844;7.684;2023-03-01T00:09:38;-2.10;1.00
3566;DHT22;1797;51.844;7.684;2023-03-01T00:12:06;-2.10;1.00
3566;DHT22;1797;51.844;7.684;2023-03-01T00:14:32;-2.20;1.00
3566;DHT22;1797;51.844;7.684;2023-03-01T00:16:58;-2.20;1.00
3566;DHT22;1797;51.844;7.684;2023-03-01T00:19:23;-2.20;1.00
3566;DHT22;1797;51.844;7.684;2023-03-01T00:21:49;-2.20;1.00
3566;DHT22;1797;51.844;7.684;2023-03-01T00:24:15;-2.10;1.00
3566;DHT22;1797;51.844;7.684;2023-03-01T00:26:40;-2.20;1.00
3566;DHT22;1797;51.844;7.684;2023-03-01T00:29:06;-2.30;1.00
3566;DHT22;1797;51.844;7.684;2023-03-01T00:31:33;-2.30;1.00
3566;DHT22;1797;51.844;7.684;2023-03-01T00:34:02;-2.30;1.00
3566;DHT22;1797;51.844;7.684;2023-03-01T00:36:33;-2.30;1.00
3566;DHT22;1797;51.844;7.684;2023-03-01T00:39:00;-2.40;1.00
3566;DHT22;1797;51.844;7.684;2023-03-01T00:41:26;-2.50;1.00
3566;DHT22;1797;51.844;7.684;2023-03-01T00:43:53;-2.40;1.00
3566;DHT22;1797;51.844;7.684;2023-03-01T00:46:21;-2.50;1.00
3566;DHT22;1797;51.844;7.684;2023-03-01T00:48:47;-2.60;1.00
3566;DHT22;1797;51.844;7.684;2023-03-01T00:53:40;-2.60;1.00
3566;DHT22;1797;51.844;7.684;2023-03-01T00:56:08;-2.70;1.00
3566;DHT22;1797;51.844;7.684;2023-03-01T00:58:34;-2.70;1.00
3566;DHT22;1797;51.844;7.684;2023-03-01T01:01:00;-2.70;1.00
3566;DHT22;1797;51.844;7.684;2023-03-01T01:03:32;-2.70;1.00
3566;DHT22;1797;51.844;7.684;2023-03-01T01:05:57;-2.70;1.00
3566;DHT22;1797;51.844;7.684;2023-03-01T01:08:23;-2.80;1.00
3566;DHT22;1797;51.844;7.684;2023-03-01T01:10:48;-2.80;1.00
3566;DHT22;1797;51.844;7.684;2023-03-01T01:13:14;-2.80;6.10
3566;DHT22;1797;51.844;7.684;2023-03-01T01:15:40;-2.80;44.80
3566;DHT22;1797;51.844;7.684;2023-03-01T01:18:05;-2.70;99.90
3566;DHT22;1797;51.844;7.684;2023-03-01T01:20:31;-2.60;99.90
3566;DHT22;1797;51.844;7.684;2023-03-01T01:22:57;-2.50;99.90
3566;DHT22;1797;51.844;7.684;2023-03-01T01:25:22;-2.30;99.90
3566;DHT22;1797;51.844;7.684;2023-03-01T01:27:50;-2.30;1.00
3566;DHT22;1797;51.844;7.684;2023-03-01T01:30:16;-2.40;1.00
3566;DHT22;1797;51.844;7.684;2023-03-01T01:32:42;-2.40;1.00
3566;DHT22;1797;51.844;7.684;2023-03-01T01:35:07;-2.40;1.00
3566;DHT22;1797;51.844;7.684;2023-03-01T01:37:33;-2.40;1.00
3566;DHT22;1797;51.844;7.684;2023-03-01T01:39:59;-2.40;1.00
3566;DHT22;1797;51.844;7.684;2023-03-01T01:42:26;-2.50;1.00
3566;DHT22;1797;51.844;7.684;2023-03-01T01:47:52;-2.60;1.00
3566;DHT22;1797;51.844;7.684;2023-03-01T01:50:20;-2.60;1.00
3566;DHT22;1797;51.844;7.684;2023-03-01T01:52:47;-2.60;1.00
3566;DHT22;1797;51.844;7.684;2023-03-01T01:55:20;-2.70;1.00
3566;DHT22;1797;51.844;7.684;2023-03-01T01:57:50;-2.70;33.50
3566;DHT22;1797;51.844;7.684;2023-03-01T02:00:20;-2.70;30.10
3566;DHT22;1797;51.844;7.684;2023-03-01T02:02:48;-2.50;23.30
3566;DHT22;1797;51.844;7.684;2023-03-01T02:07:58;-2.60;1.00
3566;DHT22;1797;51.844;7.684;2023-03-01T02:10:24;-2.60;1.00
3566;DHT22;1797;51.844;7.684;2023-03-01T02:12:51;-2.60;1.00
3566;DHT22;1797;51.844;7.684;2023-03-01T02:15:17;-2.70;1.00
3566;DHT22;1797;51.844;7.684;2023-03-01T02:17:42;-2.80;1.00
3566;DHT22;1797;51.844;7.684;2023-03-01T02:20:26;-2.90;1.00
3566;DHT22;1797;51.844;7.684;2023-03-01T02:22:54;-3.00;1.00
3566;DHT22;1797;51.844;7.684;2023-03-01T02:30:21;-3.10;1.00
3566;DHT22;1797;51.844;7.684;2023-03-01T02:32:48;-3.20;1.00
3566;DHT22;1797;51.844;7.684;2023-03-01T02:35:16;-3.30;1.00
3566;DHT22;1797;51.844;7.684;2023-03-01T02:37:44;-3.30;33.50
3566;DHT22;1797;51.844;7.684;2023-03-01T02:40:16;-3.20;99.90
3566;DHT22;1797;51.844;7.684;2023-03-01T02:42:50;-3.20;99.90
3566;DHT22;1797;51.844;7.684;2023-03-01T02:45:16;-3.30;99.90
3566;DHT22;1797;51.844;7.684;2023-03-01T02:47:42;-3.30;99.90
3566;DHT22;1797;51.844;7.684;2023-03-01T02:53:16;-3.30;99.90
3566;DHT22;1797;51.844;7.684;2023-03-01T02:55:46;-3.40;99.90
3566;DHT22;1797;51.844;7.684;2023-03-01T02:58:12;-3.40;99.90
3566;DHT22;1797;51.844;7.684;2023-03-01T03:00:40;-3.30;99.90
3566;DHT22;1797;51.844;7.684;2023-03-01T03:03:13;-3.30;99.90
3566;DHT22;1797;51.844;7.684;2023-03-01T03:05:40;-3.20;99.90
3566;DHT22;1797;51.844;7.684;2023-03-01T03:08:06;-3.30;99.90
3566;DHT22;1797;51.844;7.684;2023-03-01T03:10:35;-3.30;99.90
3566;DHT22;1797;51.844;7.684;2023-03-01T03:13:07;-3.40;99.90
3566;DHT22;1797;51.844;7.684;2023-03-01T03:15:34;-3.30;1.00
3566;DHT22;1797;51.844;7.684;2023-03-01T03:18:06;-3.20;1.00
3566;DHT22;1797;51.844;7.684;2023-03-01T03:20:33;-3.20;99.90
3566;DHT22;1797;51.844;7.684;2023-03-01T03:22:59;-3.20;99.90
3566;DHT22;1797;51.844;7.684;2023-03-01T03:25:25;-3.20;99.90
3566;DHT22;1797;51.844;7.684;2023-03-01T03:27:52;-3.20;99.90
3566;DHT22;1797;51.844;7.684;2023-03-01T03:30:23;-3.20;99.90
3566;DHT22;1797;51.844;7.684;2023-03-01T03:32:49;-3.30;99.90
3566;DHT22;1797;51.844;7.684;2023-03-01T03:35:22;-3.30;99.90
3566;DHT22;1797;51.844;7.684;2023-03-01T03:37:50;-3.40;99.90
3566;DHT22;1797;51.844;7.684;2023-03-01T03:40:34;-3.40;99.90
3566;DHT22;1797;51.844;7.684;2023-03-01T03:43:01;-3.40;99.90
3566;DHT22;1797;51.844;7.684;2023-03-01T03:45:27;-3.30;1.00
3566;DHT22;1797;51.844;7.684;2023-03-01T03:47:52;-3.30;1.00
3566;DHT22;1797;51.844;7.684;2023-03-01T03:50:19;-3.40;1.00
3566;DHT22;1797;51.844;7.684;2023-03-01T03:52:44;-3.40;99.90
3566;DHT22;1797;51.844;7.684;2023-03-01T03:55:11;-3.50;99.90
3566;DHT22;1797;51.844;7.684;2023-03-01T03:57:41;-3.60;99.90
3566;DHT22;1797;51.844;7.684;2023-03-01T04:00:10;-3.70;99.90
3566;DHT22;1797;51.844;7.684;2023-03-01T04:02:40;-3.80;1.00
3566;DHT22;1797;51.844;7.684;2023-03-01T04:05:06;-3.90;1.00
3566;DHT22;1797;51.844;7.684;2023-03-01T04:07:34;-3.80;1.00
3566;DHT22;1797;51.844;7.684;2023-03-01T04:09:59;-3.90;1.00
3566;DHT22;1797;51.844;7.684;2023-03-01T04:12:25;-3.90;1.00
3566;DHT22;1797;51.844;7.684;2023-03-01T04:14:50;-3.90;1.00
3566;DHT22;1797;51.844;7.684;2023-03-01T04:17:16;-4.00;1.00
3566;DHT22;1797;51.844;7.684;2023-03-01T04:19:42;-4.00;1.00
3566;DHT22;1797;51.844;7.684;2023-03-01T04:22:09;-4.10;1.00
3566;DHT22;1797;51.844;7.684;2023-03-01T04:24:36;-4.10;1.00
3566;DHT22;1797;51.844;7.684;2023-03-01T04:27:02;-4.20;1.00
3566;DHT22;1797;51.844;7.684;2023-03-01T04:29:28;-4.30;1.00
3566;DHT22;1797;51.844;7.684;2023-03-01T04:31:54;-4.30;1.00
3566;DHT22;1797;51.844;7.684;2023-03-01T04:34:19;-4.20;1.00
3566;DHT22;1797;51.844;7.684;2023-03-01T04:36:45;-4.20;1.00
3566;DHT22;1797;51.844;7.684;2023-03-01T04:39:10;-4.30;1.00
3566;DHT22;1797;51.844;7.684;2023-03-01T04:41:39;-4.40;1.00
3566;DHT22;1797;51.844;7.684;2023-03-01T04:44:06;-4.40;1.00
3566;DHT22;1797;51.844;7.684;2023-03-01T04:46:32;-4.50;1.00
3566;DHT22;1797;51.844;7.684;2023-03-01T04:48:58;-4.50;1.00
3566;DHT22;1797;51.844;7.684;2023-03-01T04:51:23;-4.60;12.80
3566;DHT22;1797;51.844;7.684;2023-03-01T04:53:49;-4.50;99.90
3566;DHT22;1797;51.844;7.684;2023-03-01T04:56:16;-4.60;99.90
3566;DHT22;1797;51.844;7.684;2023-03-01T04:58:43;-4.60;99.90
3566;DHT22;1797;51.844;7.684;2023-03-01T05:01:11;-4.70;99.90
3566;DHT22;1797;51.844;7.684;2023-03-01T05:03:41;-4.70;99.90
3566;DHT22;1797;51.844;7.684;2023-03-01T05:06:08;-4.70;1.00
3566;DHT22;1797;51.844;7.684;2023-03-01T05:08:33;-4.60;21.20
3566;DHT22;1797;51.844;7.684;2023-03-01T05:11:02;-4.50;1.00
3566;DHT22;1797;51.844;7.684;2023-03-01T05:13:28;-4.40;1.00
3566;DHT22;1797;51.844;7.684;2023-03-01T05:15:59;-4.40;1.00
3566;DHT22;1797;51.844;7.684;2023-03-01T05:18:26;-4.40;41.80
3566;DHT22;1797;51.844;7.684;2023-03-01T05:21:00;-4.30;92.50
3566;DHT22;1797;51.844;7.684;2023-03-01T05:23:26;-4.40;1.00
3566;DHT22;1797;51.844;7.684;2023-03-01T05:25:52;-4.30;1.00
3566;DHT22;1797;51.844;7.684;2023-03-01T05:28:18;-4.30;99.90
3566;DHT22;1797;51.844;7.684;2023-03-01T05:30:45;-4.30;1.00
3566;DHT22;1797;51.844;7.684;2023-03-01T05:33:11;-4.30;1.00
3566;DHT22;1797;51.844;7.684;2023-03-01T05:35:42;-4.30;1.00
3566;DHT22;1797;51.844;7.684;2023-03-01T05:38:12;-4.30;1.00
3566;DHT22;1797;51.844;7.684;2023-03-01T05:40:42;-4.40;99.90
3566;DHT22;1797;51.844;7.684;2023-03-01T05:43:12;-4.40;99.90
3566;DHT22;1797;51.844;7.684;2023-03-01T05:45:39;-4.40;99.90
3566;DHT22;1797;51.844;7.684;2023-03-01T05:48:06;-4.50;99.90
3566;DHT22;1797;51.844;7.684;2023-03-01T05:50:38;-4.50;99.90
3566;DHT22;1797;51.844;7.684;2023-03-01T05:53:07;-4.40;1.00
3566;DHT22;1797;51.844;7.684;2023-03-01T05:55:35;-4.30;99.90
3566;DHT22;1797;51.844;7.684;2023-03-01T05:58:03;-4.30;1.00
3566;DHT22;1797;51.844;7.684;2023-03-01T06:00:30;-4.30;1.00
3566;DHT22;1797;51.844;7.684;2023-03-01T06:02:56;-4.30;1.00
3566;DHT22;1797;51.844;7.684;2023-03-01T06:05:24;-4.40;99.90
3566;DHT22;1797;51.844;7.684;2023-03-01T06:07:49;-4.30;1.00
3566;DHT22;1797;51.844;7.684;2023-03-01T06:10:16;-4.20;1.00
3566;DHT22;1797;51.844;7.684;2023-03-01T06:12:42;-4.20;1.00
3566;DHT22;1797;51.844;7.684;2023-03-01T06:15:10;-4.20;99.90
3566;DHT22;1797;51.844;7.684;2023-03-01T06:17:37;-4.30;99.90
3566;DHT22;1797;51.844;7.684;2023-03-01T06:20:05;-4.30;99.90
3566;DHT22;1797;51.844;7.684;2023-03-01T06:22:30;-4.30;99.90
3566;DHT22;1797;51.844;7.684;2023-03-01T06:24:56;-4.30;99.90
3566;DHT22;1797;51.844;7.684;2023-03-01T06:27:21;-4.30;16.70
3566;DHT22;1797;51.844;7.684;2023-03-01T06:29:47;-4.30;1.00
3566;DHT22;1797;51.844;7.684;2023-03-01T06:32:13;-4.40;1.00
3566;DHT22;1797;51.844;7.684;2023-03-01T06:34:38;-4.40;96.50
3566;DHT22;1797;51.844;7.684;2023-03-01T06:37:04;-4.40;99.90
3566;DHT22;1797;51.844;7.684;2023-03-01T06:39:32;-4.40;1.00
3566;DHT22;1797;51.844;7.684;2023-03-01T06:41:57;-4.30;1.00
3566;DHT22;1797;51.844;7.684;2023-03-01T06:44:23;-4.20;99.90
3566;DHT22;1797;51.844;7.684;2023-03-01T06:46:49;-4.20;1.00
3566;DHT22;1797;51.844;7.684;2023-03-01T06:49:15;-3.90;1.00
3566;DHT22;1797;51.844;7.684;2023-03-01T06:51:41;-3.70;99.90
3566;DHT22;1797;51.844;7.684;2023-03-01T06:54:07;-3.60;1.00
3566;DHT22;1797;51.844;7.684;2023-03-01T06:56:33;-3.50;93.50
3566;DHT22;1797;51.844;7.684;2023-03-01T06:58:58;-3.60;1.00
3566;DHT22;1797;51.844;7.684;2023-03-01T07:01:24;-3.60;1.00
3566;DHT22;1797;51.844;7.684;2023-03-01T07:03:50;-3.50;99.90
3566;DHT22;1797;51.844;7.684;2023-03-01T07:06:16;-3.40;32.90
3566;DHT22;1797;51.844;7.684;2023-03-01T07:08:43;-3.40;1.00
3566;DHT22;1797;51.844;7.684;2023-03-01T07:11:08;-3.40;1.00
3566;DHT22;1797;51.844;7.684;2023-03-01T07:13:34;-3.30;1.00
3566;DHT22;1797;51.844;7.684;2023-03-01T07:16:01;-3.20;1.00
3566;DHT22;1797;51.844;7.684;2023-03-01T07:18:27;-3.20;99.90
3566;DHT22;1797;51.844;7.684;2023-03-01T07:20:53;-3.20;99.90
3566;DHT22;1797;51.844;7.684;2023-03-01T07:23:18;-3.20;99.90
3566;DHT22;1797;51.844;7.684;2023-03-01T07:25:44;-3.30;99.90
3566;DHT22;1797;51.844;7.684;2023-03-01T07:28:09;-3.30;99.90
3566;DHT22;1797;51.844;7.684;2023-03-01T07:30:35;-3.30;1.00
3566;DHT22;1797;51.844;7.684;2023-03-01T07:33:00;-3.20;1.00
3566;DHT22;1797;51.844;7.684;2023-03-01T07:35:27;-3.10;1.00
3566;DHT22;1797;51.844;7.684;2023-03-01T07:37:53;-3.00;1.00
3566;DHT22;1797;51.844;7.684;2023-03-01T07:40:19;-2.90;1.00
3566;DHT22;1797;51.844;7.684;2023-03-01T07:42:45;-2.70;99.90
3566;DHT22;1797;51.844;7.684;2023-03-01T07:45:11;-2.60;89.10
3566;DHT22;1797;51.844;7.684;2023-03-01T07:47:36;-2.50;1.00
3566;DHT22;1797;51.844;7.684;2023-03-01T07:50:03;-2.40;1.00
3566;DHT22;1797;51.844;7.684;2023-03-01T07:52:29;-2.30;1.00
3566;DHT22;1797;51.844;7.684;2023-03-01T07:54:56;-2.30;1.00
3566;DHT22;1797;51.844;7.684;2023-03-01T07:57:21;-2.20;1.00
3566;DHT22;1797;51.844;7.684;2023-03-01T07:59:47;-2.20;1.00
3566;DHT22;1797;51.844;7.684;2023-03-01T08:02:12;-2.20;1.00
3566;DHT22;1797;51.844;7.684;2023-03-01T08:04:40;-2.10;1.00
3566;DHT22;1797;51.844;7.684;2023-03-01T08:07:06;-2.10;1.00
3566;DHT22;1797;51.844;7.684;2023-03-01T08:09:34;-2.00;1.00
3566;DHT22;1797;51.844;7.684;2023-03-01T08:12:00;-1.90;1.00
3566;DHT22;1797;51.844;7.684;2023-03-01T08:14:26;-1.90;1.00
3566;DHT22;1797;51.844;7.684;2023-03-01T08:16:52;-1.80;1.00
3566;DHT22;1797;51.844;7.684;2023-03-01T08:19:17;-1.70;1.00
3566;DHT22;1797;51.844;7.684;2023-03-01T08:21:43;-1.60;99.90
3566;DHT22;1797;51.844;7.684;2023-03-01T08:24:09;-1.50;99.90
3566;DHT22;1797;51.844;7.684;2023-03-01T08:26:36;-1.40;99.90
3566;DHT22;1797;51.844;7.684;2023-03-01T08:29:02;-1.20;99.90
3566;DHT22;1797;51.844;7.684;2023-03-01T08:31:36;-1.00;1.00
3566;DHT22;1797;51.844;7.684;2023-03-01T08:34:07;-0.80;1.00
3566;DHT22;1797;51.844;7.684;2023-03-01T08:36:37;-0.50;1.00
3566;DHT22;1797;51.844;7.684;2023-03-01T08:39:03;-0.30;1.00
3566;DHT22;1797;51.844;7.684;2023-03-01T08:41:29;-0.20;1.00
3566;DHT22;1797;51.844;7.684;2023-03-01T08:43:55;0.00;1.00
3566;DHT22;1797;51.844;7.684;2023-03-01T08:46:28;0.20;1.00
3566;DHT22;1797;51.844;7.684;2023-03-01T08:48:54;0.40;1.00
3566;DHT22;1797;51.844;7.684;2023-03-01T08:51:21;0.70;1.00
3566;DHT22;1797;51.844;7.684;2023-03-01T08:53:47;1.00;99.90
3566;DHT22;1797;51.844;7.684;2023-03-01T08:56:14;1.30;28.60
3566;DHT22;1797;51.844;7.684;2023-03-01T08:58:42;1.50;91.30
3566;DHT22;1797;51.844;7.684;2023-03-01T09:01:14;1.70;1.00
3566;DHT22;1797;51.844;7.684;2023-03-01T09:03:40;1.90;1.00
3566;DHT22;1797;51.844;7.684;2023-03-01T09:06:07;2.10;1.00
3566;DHT22;1797;51.844;7.684;2023-03-01T09:08:43;2.30;1.00
3566;DHT22;1797;51.844;7.684;2023-03-01T09:11:11;2.50;1.00
3566;DHT22;1797;51.844;7.684;2023-03-01T09:13:37;2.70;1.00
3566;DHT22;1797;51.844;7.684;2023-03-01T09:16:05;2.90;1.00
3566;DHT22;1797;51.844;7.684;2023-03-01T09:18:31;3.10;1.00
3566;DHT22;1797;51.844;7.684;2023-03-01T09:21:05;3.30;1.00
3566;DHT22;1797;51.844;7.684;2023-03-01T09:23:36;3.40;1.00
3566;DHT22;1797;51.844;7.684;2023-03-01T09:26:04;3.50;1.00
3566;DHT22;1797;51.844;7.684;2023-03-01T09:28:30;3.70;1.00
3566;DHT22;1797;51.844;7.684;2023-03-01T09:31:00;3.80;1.00
3566;DHT22;1797;51.844;7.684;2023-03-01T09:33:26;3.90;1.00
3566;DHT22;1797;51.844;7.684;2023-03-01T09:36:02;4.20;1.00
3566;DHT22;1797;51.844;7.684;2023-03-01T09:38:28;4.30;1.00
3566;DHT22;1797;51.844;7.684;2023-03-01T09:40:55;4.40;1.00
3566;DHT22;1797;51.844;7.684;2023-03-01T09:45:51;4.70;1.00
3566;DHT22;1797;51.844;7.684;2023-03-01T09:48:21;4.90;1.00
3566;DHT22;1797;51.844;7.684;2023-03-01T09:50:49;5.10;1.00
3566;DHT22;1797;51.844;7.684;2023-03-01T09:53:32;5.30;1.00
3566;DHT22;1797;51.844;7.684;2023-03-01T09:56:05;5.50;1.00
3566;DHT22;1797;51.844;7.684;2023-03-01T09:58:47;5.60;1.00
3566;DHT22;1797;51.844;7.684;2023-03-01T10:01:27;5.60;1.00
3566;DHT22;1797;51.844;7.684;2023-03-01T10:06:31;5.50;1.00
3566;DHT22;1797;51.844;7.684;2023-03-01T10:09:07;5.50;1.00
3566;DHT22;1797;51.844;7.684;2023-03-01T10:11:38;5.70;1.00
3566;DHT22;1797;51.844;7.684;2023-03-01T10:17:09;6.20;1.00
3566;DHT22;1797;51.844;7.684;2023-03-01T10:19:41;6.50;99.90
3566;DHT22;1797;51.844;7.684;2023-03-01T10:22:22;6.60;99.90
3566;DHT22;1797;51.844;7.684;2023-03-01T10:24:52;6.80;1.00
3566;DHT22;1797;51.844;7.684;2023-03-01T10:32:58;7.00;99.90
3566;DHT22;1797;51.844;7.684;2023-03-01T10:35:27;7.10;99.90
3566;DHT22;1797;51.844;7.684;2023-03-01T10:38:10;7.10;99.90
3566;DHT22;1797;51.844;7.684;2023-03-01T10:40:56;7.10;99.90
3566;DHT22;1797;51.844;7.684;2023-03-01T10:46:44;7.10;99.90
3566;DHT22;1797;51.844;7.684;2023-03-01T10:49:23;7.30;99.90
3566;DHT22;1797;51.844;7.684;2023-03-01T10:51:52;7.40;99.90
3566;DHT22;1797;51.844;7.684;2023-03-01T10:56:59;7.60;99.90
3566;DHT22;1797;51.844;7.684;2023-03-01T10:59:31;7.60;99.90
3566;DHT22;1797;51.844;7.684;2023-03-01T11:04:35;7.70;99.90
3566;DHT22;1797;51.844;7.684;2023-03-01T11:07:02;7.70;99.90
3566;DHT22;1797;51.844;7.684;2023-03-01T11:09:32;7.70;99.90
3566;DHT22;1797;51.844;7.684;2023-03-01T11:12:11;7.80;99.90
3566;DHT22;1797;51.844;7.684;2023-03-01T11:14:39;7.90;99.90
3566;DHT22;1797;51.844;7.684;2023-03-01T11:17:25;7.90;99.90
3566;DHT22;1797;51.844;7.684;2023-03-01T11:22:58;8.30;99.90
3566;DHT22;1797;51.844;7.684;2023-03-01T11:25:35;8.50;99.90
3566;DHT22;1797;51.844;7.684;2023-03-01T11:28:04;8.60;99.90
3566;DHT22;1797;51.844;7.684;2023-03-01T11:30:41;8.70;99.90
3566;DHT22;1797;51.844;7.684;2023-03-01T11:35:49;8.80;99.90
3566;DHT22;1797;51.844;7.684;2023-03-01T11:41:01;9.10;99.90
3566;DHT22;1797;51.844;7.684;2023-03-01T11:43:37;9.10;99.90
3566;DHT22;1797;51.844;7.684;2023-03-01T11:54:27;9.30;99.90
3566;DHT22;1797;51.844;7.684;2023-03-01T11:57:47;9.40;99.90
3566;DHT22;1797;51.844;7.684;2023-03-01T12:06:55;9.20;99.90
3566;DHT22;1797;51.844;7.684;2023-03-01T12:12:32;9.50;99.90
3566;DHT22;1797;51.844;7.684;2023-03-01T12:20:48;9.40;99.90
3566;DHT22;1797;51.844;7.684;2023-03-01T12:26:29;9.40;99.90
3566;DHT22;1797;51.844;7.684;2023-03-01T12:37:54;8.90;99.90
3566;DHT22;1797;51.844;7.684;2023-03-01T12:46:02;9.20;99.90
3566;DHT22;1797;51.844;7.684;2023-03-01T12:51:20;9.10;99.90
3566;DHT22;1797;51.844;7.684;2023-03-01T12:53:48;9.20;99.90
3566;DHT22;1797;51.844;7.684;2023-03-01T12:56:27;9.20;99.90
3566;DHT22;1797;51.844;7.684;2023-03-01T13:07:34;9.60;99.90
3566;DHT22;1797;51.844;7.684;2023-03-01T13:10:23;9.50;99.90
3566;DHT22;1797;51.844;7.684;2023-03-01T13:17:51;8.80;99.90
3566;DHT22;1797;51.844;7.684;2023-03-01T13:20:22;8.80;99.90
3566;DHT22;1797;51.844;7.684;2023-03-01T13:23:01;8.70;99.90
3566;DHT22;1797;51.844;7.684;2023-03-01T13:25:27;8.60;99.90
3566;DHT22;1797;51.844;7.684;2023-03-01T13:30:57;8.50;99.90
3566;DHT22;1797;51.844;7.684;2023-03-01T13:35:52;8.60;99.90
3566;DHT22;1797;51.844;7.684;2023-03-01T13:38:54;8.70;99.90
3566;DHT22;1797;51.844;7.684;2023-03-01T13:46:38;8.20;99.90
3566;DHT22;1797;51.844;7.684;2023-03-01T13:49:04;8.20;99.90
3566;DHT22;1797;51.844;7.684;2023-03-01T13:51:29;8.00;99.90
3566;DHT22;1797;51.844;7.684;2023-03-01T13:53:56;7.80;99.90
3566;DHT22;1797;51.844;7.684;2023-03-01T13:56:28;7.60;99.90
3566;DHT22;1797;51.844;7.684;2023-03-01T13:59:01;7.50;99.90
3566;DHT22;1797;51.844;7.684;2023-03-01T14:01:30;7.30;99.90
3566;DHT22;1797;51.844;7.684;2023-03-01T14:03:56;7.10;99.90
3566;DHT22;1797;51.844;7.684;2023-03-01T14:06:25;7.10;99.90
3566;DHT22;1797;51.844;7.684;2023-03-01T14:19:47;7.10;99.90
3566;DHT22;1797;51.844;7.684;2023-03-01T14:22:25;7.00;99.90
3566;DHT22;1797;51.844;7.684;2023-03-01T14:27:20;6.90;99.90
3566;DHT22;1797;51.844;7.684;2023-03-01T14:30:02;6.90;99.90
3566;DHT22;1797;51.844;7.684;2023-03-01T14:32:30;6.90;99.90
3566;DHT22;1797;51.844;7.684;2023-03-01T14:34:58;6.90;99.90
3566;DHT22;1797;51.844;7.684;2023-03-01T14:37:27;6.80;99.90
3566;DHT22;1797;51.844;7.684;2023-03-01T14:39:54;6.80;99.90
3566;DHT22;1797;51.844;7.684;2023-03-01T14:42:22;6.80;99.90
3566;DHT22;1797;51.844;7.684;2023-03-01T14:44:50;6.80;99.90
3566;DHT22;1797;51.844;7.684;2023-03-01T14:47:29;6.80;99.90
3566;DHT22;1797;51.844;7.684;2023-03-01T14:50:31;6.80;99.90
3566;DHT22;1797;51.844;7.684;2023-03-01T14:53:00;6.80;99.90
3566;DHT22;1797;51.844;7.684;2023-03-01T14:55:35;6.70;99.90
3566;DHT22;1797;51.844;7.684;2023-03-01T14:58:08;6.70;99.90
3566;DHT22;1797;51.844;7.684;2023-03-01T15:00:35;6.70;99.90
3566;DHT22;1797;51.844;7.684;2023-03-01T15:03:31;6.70;99.90
3566;DHT22;1797;51.844;7.684;2023-03-01T15:05:52;6.70;99.90
3566;DHT22;1797;51.844;7.684;2023-03-01T15:08:24;6.70;99.90
3566;DHT22;1797;51.844;7.684;2023-03-01T15:13:35;6.70;99.90
3566;DHT22;1797;51.844;7.684;2023-03-01T15:16:04;6.60;99.90
3566;DHT22;1797;51.844;7.684;2023-03-01T15:18:31;6.70;99.90
3566;DHT22;1797;51.844;7.684;2023-03-01T15:21:06;6.60;99.90
3566;DHT22;1797;51.844;7.684;2023-03-01T15:23:32;6.70;99.90
3566;DHT22;1797;51.844;7.684;2023-03-01T15:25:58;6.60;99.90
3566;DHT22;1797;51.844;7.684;2023-03-01T15:28:43;6.60;99.90
3566;DHT22;1797;51.844;7.684;2023-03-01T15:31:26;6.50;99.90
3566;DHT22;1797;51.844;7.684;2023-03-01T15:33:53;6.50;99.90
3566;DHT22;1797;51.844;7.684;2023-03-01T15:36:42;6.50;99.90
3566;DHT22;1797;51.844;7.684;2023-03-01T15:41:55;6.40;99.90
3566;DHT22;1797;51.844;7.684;2023-03-01T15:44:32;6.40;99.90
3566;DHT22;1797;51.844;7.684;2023-03-01T15:46:58;6.30;99.90
3566;DHT22;1797;51.844;7.684;2023-03-01T15:49:37;6.20;99.90
3566;DHT22;1797;51.844;7.684;2023-03-01T15:52:06;6.20;99.90
3566;DHT22;1797;51.844;7.684;2023-03-01T15:54:35;6.20;99.90
3566;DHT22;1797;51.844;7.684;2023-03-01T15:57:00;6.20;99.90
3566;DHT22;1797;51.844;7.684;2023-03-01T15:59:26;6.20;99.90
3566;DHT22;1797;51.844;7.684;2023-03-01T16:01:52;6.10;99.90
3566;DHT22;1797;51.844;7.684;2023-03-01T16:04:18;6.10;99.90
3566;DHT22;1797;51.844;7.684;2023-03-01T16:06:52;6.10;99.90
3566;DHT22;1797;51.844;7.684;2023-03-01T16:09:23;6.00;99.90
3566;DHT22;1797;51.844;7.684;2023-03-01T16:11:49;5.80;99.90
3566;DHT22;1797;51.844;7.684;2023-03-01T16:14:15;5.80;99.90
3566;DHT22;1797;51.844;7.684;2023-03-01T16:16:42;5.80;99.90
3566;DHT22;1797;51.844;7.684;2023-03-01T16:19:07;5.70;99.90
3566;DHT22;1797;51.844;7.684;2023-03-01T16:21:33;5.70;99.90
3566;DHT22;1797;51.844;7.684;2023-03-01T16:23:58;5.80;99.90
3566;DHT22;1797;51.844;7.684;2023-03-01T16:26:24;5.80;99.90
3566;DHT22;1797;51.844;7.684;2023-03-01T16:28:50;5.70;99.90
3566;DHT22;1797;51.844;7.684;2023-03-01T16:31:19;5.70;99.90
3566;DHT22;1797;51.844;7.684;2023-03-01T16:33:45;5.60;99.90
3566;DHT22;1797;51.844;7.684;2023-03-01T16:36:17;5.60;99.90
3566;DHT22;1797;51.844;7.684;2023-03-01T16:38:43;5.50;99.90
3566;DHT22;1797;51.844;7.684;2023-03-01T16:41:13;5.50;99.90
3566;DHT22;1797;51.844;7.684;2023-03-01T16:43:39;5.40;99.90
3566;DHT22;1797;51.844;7.684;2023-03-01T16:46:17;5.30;99.90
3566;DHT22;1797;51.844;7.684;2023-03-01T16:48:45;5.30;99.90
3566;DHT22;1797;51.844;7.684;2023-03-01T16:51:11;5.20;99.90
3566;DHT22;1797;51.844;7.684;2023-03-01T16:53:37;5.10;99.90
3566;DHT22;1797;51.844;7.684;2023-03-01T16:56:05;5.00;99.90
3566;DHT22;1797;51.844;7.684;2023-03-01T16:58:32;5.00;99.90
3566;DHT22;1797;51.844;7.684;2023-03-01T17:01:04;4.90;99.90
3566;DHT22;1797;51.844;7.684;2023-03-01T17:03:30;4.80;99.90
3566;DHT22;1797;51.844;7.684;2023-03-01T17:05:56;4.80;99.90
3566;DHT22;1797;51.844;7.684;2023-03-01T17:08:21;4.70;99.90
3566;DHT22;1797;51.844;7.684;2023-03-01T17:10:47;4.60;99.90
3566;DHT22;1797;51.844;7.684;2023-03-01T17:13:13;4.60;99.90
3566;DHT22;1797;51.844;7.684;2023-03-01T17:15:41;4.50;99.90
3566;DHT22;1797;51.844;7.684;2023-03-01T17:18:08;4.40;99.90
3566;DHT22;1797;51.844;7.684;2023-03-01T17:20:34;4.30;99.90
3566;DHT22;1797;51.844;7.684;2023-03-01T17:22:59;4.30;99.90
3566;DHT22;1797;51.844;7.684;2023-03-01T17:25:25;4.20;99.90
3566;DHT22;1797;51.844;7.684;2023-03-01T17:27:50;4.10;99.90
3566;DHT22;1797;51.844;7.684;2023-03-01T17:30:16;4.20;99.90
3566;DHT22;1797;51.844;7.684;2023-03-01T17:32:42;4.10;99.90
3566;DHT22;1797;51.844;7.684;2023-03-01T17:35:08;4.10;99.90
3566;DHT22;1797;51.844;7.684;2023-03-01T17:37:37;4.10;99.90
3566;DHT22;1797;51.844;7.684;2023-03-01T17:40:04;3.90;99.90
3566;DHT22;1797;51.844;7.684;2023-03-01T17:42:30;3.80;99.90
3566;DHT22;1797;51.844;7.684;2023-03-01T17:44:56;3.80;99.90
3566;DHT22;1797;51.844;7.684;2023-03-01T17:47:22;3.80;99.90
3566;DHT22;1797;51.844;7.684;2023-03-01T17:49:47;3.70;99.90
3566;DHT22;1797;51.844;7.684;2023-03-01T17:52:13;3.60;1.00
3566;DHT22;1797;51.844;7.684;2023-03-01T17:54:38;3.60;99.90
3566;DHT22;1797;51.844;7.684;2023-03-01T17:57:04;3.50;1.00
3566;DHT22;1797;51.844;7.684;2023-03-01T17:59:30;3.40;1.00
3566;DHT22;1797;51.844;7.684;2023-03-01T18:01:58;3.30;1.00
3566;DHT22;1797;51.844;7.684;2023-03-01T18:04:26;3.30;1.00
3566;DHT22;1797;51.844;7.684;2023-03-01T18:06:52;3.30;1.00
3566;DHT22;1797;51.844;7.684;2023-03-01T18:09:17;3.20;1.00
3566;DHT22;1797;51.844;7.684;2023-03-01T18:11:44;3.10;1.00
3566;DHT22;1797;51.844;7.684;2023-03-01T18:14:09;3.20;1.00
3566;DHT22;1797;51.844;7.684;2023-03-01T18:16:35;3.20;1.00
3566;DHT22;1797;51.844;7.684;2023-03-01T18:19:01;3.10;1.00
3566;DHT22;1797;51.844;7.684;2023-03-01T18:21:27;3.20;1.00
3566;DHT22;1797;51.844;7.684;2023-03-01T18:23:53;3.10;1.00
3566;DHT22;1797;51.844;7.684;2023-03-01T18:26:20;3.10;1.00
3566;DHT22;1797;51.844;7.684;2023-03-01T18:28:48;3.00;1.00
3566;DHT22;1797;51.844;7.684;2023-03-01T18:31:16;3.00;1.00
3566;DHT22;1797;51.844;7.684;2023-03-01T18:33:43;3.00;1.00
3566;DHT22;1797;51.844;7.684;2023-03-01T18:36:20;3.00;1.00
3566;DHT22;1797;51.844;7.684;2023-03-01T18:38:46;2.90;1.00
3566;DHT22;1797;51.844;7.684;2023-03-01T18:41:13;2.80;1.00